createdAt,value
2023-05-21T00:00:48.708Z,101935.22
2023-05-21T00:03:18.957Z,101935.65
2023-05-21T00:05:50.286Z,101935.69
2023-05-21T00:08:19.787Z,101939.41
2023-05-21T00:10:49.112Z,101933.05
2023-05-21T00:13:18.861Z,101929.08
2023-05-21T00:15:48.175Z,101926.91
2023-05-21T00:18:18.227Z,101924.03
2023-05-21T00:20:47.663Z,101927.38
2023-05-21T00:23:18.590Z,101923.88
2023-05-21T00:25:49.646Z,101925.31
2023-05-21T00:28:19.016Z,101922.91
2023-05-21T00:30:48.675Z,101921.08
2023-05-21T00:33:18.077Z,101920.61
2023-05-21T00:35:47.392Z,101906.44
2023-05-21T00:38:18.744Z,101913.31
2023-05-21T00:40:48.763Z,101911.13
2023-05-21T00:43:18.423Z,101911.02
2023-05-21T00:45:48.605Z,101910.67
2023-05-21T00:48:18.542Z,101909.97
2023-05-21T00:50:49.608Z,101907.69
2023-05-21T00:53:19.784Z,101909.73
2023-05-21T00:55:49.368Z,101914.79
2023-05-21T00:58:19.114Z,101913.59
2023-05-21T01:00:48.771Z,101913.94
2023-05-21T01:03:19.187Z,101909.98
2023-05-21T01:05:48.872Z,101905.92
2023-05-21T01:08:20.160Z,101903.28
2023-05-21T01:10:50.711Z,101905.08
2023-05-21T01:13:20.771Z,101904.02
2023-05-21T01:15:50.908Z,101906.63
2023-05-21T01:18:20.676Z,101902.78
2023-05-21T01:20:50.274Z,101898.70
2023-05-21T01:23:19.957Z,101902.23
2023-05-21T01:25:49.433Z,101901.75
2023-05-21T01:28:18.783Z,101899.95
2023-05-21T01:30:48.432Z,101893.84
2023-05-21T01:33:24.701Z,101898.66
2023-05-21T01:35:57.287Z,101900.47
2023-05-21T01:38:32.683Z,101894.70
2023-05-21T01:41:04.477Z,101894.35
2023-05-21T01:43:35.676Z,101892.18
2023-05-21T01:46:05.638Z,101896.28
2023-05-21T01:48:36.353Z,101889.80
2023-05-21T01:51:06.710Z,101894.46
2023-05-21T01:53:38.303Z,101897.61
2023-05-21T01:56:08.318Z,101889.43
2023-05-21T01:58:37.732Z,101896.86
2023-05-21T02:01:07.257Z,101895.06
2023-05-21T02:03:37.034Z,101892.06
2023-05-21T02:06:06.610Z,101885.20
2023-05-21T02:08:36.172Z,101890.75
2023-05-21T02:11:05.632Z,101888.33
2023-05-21T02:13:36.696Z,101894.45
2023-05-21T02:16:08.262Z,101894.93
2023-05-21T02:18:37.998Z,101893.36
2023-05-21T02:21:07.652Z,101889.88
2023-05-21T02:23:36.982Z,101886.50
2023-05-21T02:26:06.513Z,101887.09
2023-05-21T02:28:36.534Z,101885.08
2023-05-21T02:31:05.921Z,101886.75
2023-05-21T02:33:35.245Z,101882.53
2023-05-21T02:36:05.082Z,101878.66
2023-05-21T02:38:34.484Z,101878.22
2023-05-21T02:41:03.859Z,101874.49
2023-05-21T02:43:35.174Z,101873.64
2023-05-21T02:46:05.866Z,101878.22
2023-05-21T02:48:35.497Z,101879.88
2023-05-21T02:51:05.911Z,101881.30
2023-05-21T02:53:35.495Z,101881.30
2023-05-21T02:56:05.168Z,101883.73
2023-05-21T02:58:34.504Z,101885.17
2023-05-21T03:01:03.887Z,101886.50
2023-05-21T03:03:33.543Z,101884.20
2023-05-21T03:06:04.461Z,101886.27
2023-05-21T03:08:33.798Z,101886.14
2023-05-21T03:11:03.210Z,101879.53
2023-05-21T03:13:32.593Z,101887.47
2023-05-21T03:16:02.217Z,101881.45
2023-05-21T03:18:33.238Z,101872.21
2023-05-21T03:21:02.586Z,101872.21
2023-05-21T03:23:32.312Z,101872.11
2023-05-21T03:26:02.404Z,101873.53
2023-05-21T03:28:32.684Z,101866.19
2023-05-21T03:31:03.258Z,101865.25
2023-05-21T03:33:37.312Z,101867.52
2023-05-21T03:36:08.532Z,101872.81
2023-05-21T03:38:38.733Z,101870.42
2023-05-21T03:41:10.087Z,101872.21
2023-05-21T03:43:40.676Z,101870.89
2023-05-21T03:46:10.391Z,101864.99
2023-05-21T03:48:47.224Z,101866.09
2023-05-21T03:51:18.069Z,101873.05
2023-05-21T03:53:47.815Z,101868.47
2023-05-21T03:56:18.628Z,101873.88
2023-05-21T03:58:48.088Z,101875.93
2023-05-21T04:01:17.845Z,101870.89
2023-05-21T04:03:48.286Z,101873.19
2023-05-21T04:06:19.186Z,101877.01
2023-05-21T04:08:48.619Z,101872.69
2023-05-21T04:11:18.320Z,101871.97
2023-05-21T04:13:48.271Z,101874.61
2023-05-21T04:16:19.296Z,101874.36
2023-05-21T04:18:49.249Z,101867.97
2023-05-21T04:21:18.937Z,101865.93
2023-05-21T04:23:48.336Z,101864.36
2023-05-21T04:26:19.332Z,101864.86
2023-05-21T04:28:48.837Z,101863.78
2023-05-21T04:31:18.429Z,101863.28
2023-05-21T04:33:48.639Z,101867.13
2023-05-21T04:36:18.039Z,101865.66
2023-05-21T04:38:48.921Z,101865.56
2023-05-21T04:41:19.051Z,101865.05
2023-05-21T04:43:48.726Z,101864.93
2023-05-21T04:46:18.739Z,101859.04
2023-05-21T04:48:49.839Z,101864.08
2023-05-21T04:51:19.290Z,101864.33
2023-05-21T04:53:50.008Z,101862.76
2023-05-21T04:56:19.778Z,101869.59
2023-05-21T04:58:49.545Z,101866.22
2023-05-21T05:01:19.540Z,101862.44
2023-05-21T05:03:49.302Z,101871.70
2023-05-21T05:06:19.058Z,101872.42
2023-05-21T05:08:48.476Z,101867.44
2023-05-21T05:11:19.683Z,101868.63
2023-05-21T05:13:49.201Z,101864.66
2023-05-21T05:16:20.359Z,101867.91
2023-05-21T05:18:49.923Z,101863.80
2023-05-21T05:21:19.391Z,101866.57
2023-05-21T05:23:48.825Z,101869.91
2023-05-21T05:26:18.313Z,101870.50
2023-05-21T05:28:47.770Z,101860.84
2023-05-21T05:31:17.472Z,101861.19
2023-05-21T05:33:47.011Z,101853.81
2023-05-21T05:36:16.677Z,101851.63
2023-05-21T05:38:46.527Z,101856.05
2023-05-21T05:41:16.073Z,101857.44
2023-05-21T05:43:45.535Z,101868.45
2023-05-21T05:46:15.541Z,101863.59
2023-05-21T05:48:44.890Z,101862.95
2023-05-21T05:51:17.193Z,101863.65
2023-05-21T05:53:47.494Z,101868.82
2023-05-21T05:56:17.283Z,101863.25
2023-05-21T05:58:46.650Z,101863.25
2023-05-21T06:01:17.686Z,101866.69
2023-05-21T06:03:47.516Z,101866.16
2023-05-21T06:06:18.237Z,101869.95
2023-05-21T06:08:47.748Z,101869.03
2023-05-21T06:11:19.291Z,101864.78
2023-05-21T06:13:48.797Z,101869.76
2023-05-21T06:16:18.938Z,101870.74
2023-05-21T06:18:48.911Z,101862.76
2023-05-21T06:21:18.324Z,101870.13
2023-05-21T06:23:48.207Z,101870.72
2023-05-21T06:26:19.304Z,101872.52
2023-05-21T06:28:49.610Z,101868.98
2023-05-21T06:31:21.655Z,101867.02
2023-05-21T06:33:51.514Z,101868.92
2023-05-21T06:36:21.567Z,101866.20
2023-05-21T06:38:51.086Z,101866.06
2023-05-21T06:41:21.150Z,101870.95
2023-05-21T06:43:55.247Z,101869.30
2023-05-21T06:46:43.111Z,101869.46
2023-05-21T06:49:14.437Z,101871.59
2023-05-21T06:51:44.793Z,101870.75
2023-05-21T06:54:14.750Z,101864.20
2023-05-21T06:56:45.531Z,101866.06
2023-05-21T06:59:16.793Z,101864.83
2023-05-21T07:01:46.244Z,101862.28
2023-05-21T07:04:15.677Z,101864.94
2023-05-21T07:06:45.887Z,101860.19
2023-05-21T07:09:15.549Z,101866.22
2023-05-21T07:11:44.893Z,101860.05
2023-05-21T07:14:14.758Z,101856.82
2023-05-21T07:16:44.228Z,101868.53
2023-05-21T07:19:16.107Z,101859.33
2023-05-21T07:21:46.208Z,101856.91
2023-05-21T07:24:15.701Z,101863.15
2023-05-21T07:26:45.024Z,101859.38
2023-05-21T07:29:15.037Z,101860.27
2023-05-21T07:31:44.358Z,101849.73
2023-05-21T07:34:13.767Z,101855.23
2023-05-21T07:36:43.623Z,101851.77
2023-05-21T07:39:13.712Z,101848.59
2023-05-21T07:41:43.985Z,101849.60
2023-05-21T07:44:13.495Z,101847.34
2023-05-21T07:46:44.020Z,101848.19
2023-05-21T07:49:15.518Z,101847.97
2023-05-21T07:51:45.658Z,101849.33
2023-05-21T07:54:15.790Z,101848.45
2023-05-21T07:56:45.173Z,101852.55
2023-05-21T07:59:17.341Z,101851.52
2023-05-21T08:01:46.921Z,101850.59
2023-05-21T08:04:19.656Z,101850.19
2023-05-21T08:06:49.462Z,101847.75
2023-05-21T08:09:19.391Z,101848.58
2023-05-21T08:11:48.809Z,101855.45
2023-05-21T08:14:18.233Z,101854.72
2023-05-21T08:16:48.399Z,101844.67
2023-05-21T08:19:18.084Z,101844.52
2023-05-21T08:21:47.885Z,101848.33
2023-05-21T08:24:17.424Z,101846.80
2023-05-21T08:26:47.585Z,101845.61
2023-05-21T08:29:17.005Z,101841.19
2023-05-21T08:31:46.440Z,101840.15
2023-05-21T08:34:16.597Z,101839.91
2023-05-21T08:36:51.410Z,101844.21
2023-05-21T08:39:38.869Z,101839.38
2023-05-21T08:42:13.001Z,101830.95
2023-05-21T08:44:45.824Z,101837.16
2023-05-21T08:47:17.295Z,101831.13
2023-05-21T08:49:48.047Z,101834.32
2023-05-21T08:52:17.586Z,101837.13
2023-05-21T08:54:48.032Z,101836.61
2023-05-21T08:57:18.332Z,101832.50
2023-05-21T08:59:48.342Z,101829.95
2023-05-21T09:02:20.404Z,101827.64
2023-05-21T09:04:53.712Z,101831.50
2023-05-21T09:07:25.254Z,101830.86
2023-05-21T09:10:11.412Z,101831.13
2023-05-21T09:12:41.598Z,101827.38
2023-05-21T09:15:12.170Z,101822.09
2023-05-21T09:17:41.833Z,101820.37
2023-05-21T09:20:18.843Z,101817.88
2023-05-21T09:22:51.877Z,101816.37
2023-05-21T09:25:29.355Z,101813.59
2023-05-21T09:28:00.923Z,101813.41
2023-05-21T09:30:32.596Z,101813.59
2023-05-21T09:33:03.488Z,101814.27
2023-05-21T09:35:36.324Z,101817.63
2023-05-21T09:38:09.713Z,101813.95
2023-05-21T09:40:43.318Z,101809.09
2023-05-21T09:43:16.004Z,101809.45
2023-05-21T09:46:00.462Z,101808.27
2023-05-21T09:48:42.148Z,101805.59
2023-05-21T09:51:17.922Z,101801.66
2023-05-21T09:53:55.790Z,101802.57
2023-05-21T09:56:27.531Z,101797.19
2023-05-21T09:58:58.398Z,101797.19
2023-05-21T10:01:53.214Z,101798.89
2023-05-21T10:04:24.391Z,101795.50
2023-05-21T10:06:54.091Z,101794.29
2023-05-21T10:09:23.861Z,101799.09
2023-05-21T10:11:54.854Z,101782.88
2023-05-21T10:14:26.501Z,101780.58
2023-05-21T10:16:57.805Z,101781.45
2023-05-21T10:19:27.510Z,101771.09
2023-05-21T10:21:57.431Z,101777.42
2023-05-21T10:24:27.001Z,101782.31
2023-05-21T10:26:56.387Z,101764.86
2023-05-21T10:29:26.518Z,101775.16
2023-05-21T10:31:56.501Z,101764.40
2023-05-21T10:34:25.951Z,101771.22
2023-05-21T10:36:57.256Z,101776.52
2023-05-21T10:39:26.752Z,101769.22
2023-05-21T10:42:14.336Z,101769.80
2023-05-21T10:45:01.685Z,101768.00
2023-05-21T10:47:50.583Z,101761.39
2023-05-21T10:50:24.007Z,101770.80
2023-05-21T10:53:25.027Z,101767.04
2023-05-21T10:56:01.973Z,101759.35
2023-05-21T10:58:34.463Z,101756.48
2023-05-21T11:01:04.401Z,101761.16
2023-05-21T11:03:37.243Z,101753.23
2023-05-21T11:06:06.422Z,101752.36
2023-05-21T11:08:37.210Z,101752.86
2023-05-21T11:11:06.742Z,101740.00
2023-05-21T11:13:49.907Z,101744.45
2023-05-21T11:16:21.337Z,101737.43
2023-05-21T11:18:55.074Z,101727.25
2023-05-21T11:21:26.889Z,101733.83
2023-05-21T11:23:58.347Z,101732.53
2023-05-21T11:26:29.961Z,101728.61
2023-05-21T11:29:08.596Z,101735.27
2023-05-21T11:31:41.290Z,101730.02
2023-05-21T11:34:31.890Z,101726.09
2023-05-21T11:37:26.968Z,101727.73
2023-05-21T11:39:57.736Z,101725.11
2023-05-21T11:42:32.333Z,101717.36
2023-05-21T11:45:06.313Z,101722.98
2023-05-21T11:47:36.141Z,101715.69
2023-05-21T11:50:06.695Z,101708.95
2023-05-21T11:52:36.888Z,101705.45
2023-05-21T11:55:07.436Z,101706.92
2023-05-21T11:57:37.037Z,101697.50
2023-05-21T12:00:13.948Z,101696.47
2023-05-21T12:02:46.849Z,101692.94
2023-05-21T12:05:16.605Z,101690.20
2023-05-21T12:07:49.689Z,101683.26
2023-05-21T12:10:23.900Z,101692.38
2023-05-21T12:12:56.938Z,101688.33
2023-05-21T12:15:25.883Z,101685.95
2023-05-21T12:17:56.322Z,101684.92
2023-05-21T12:20:28.408Z,101684.59
2023-05-21T12:22:59.320Z,101687.08
2023-05-21T12:25:29.848Z,101688.73
2023-05-21T12:28:00.915Z,101691.95
2023-05-21T12:30:30.453Z,101694.86
2023-05-21T12:33:00.478Z,101695.02
2023-05-21T12:35:30.867Z,101688.83
2023-05-21T12:38:03.380Z,101700.55
2023-05-21T12:40:40.222Z,101692.13
2023-05-21T12:43:16.030Z,101693.39
2023-05-21T12:45:46.554Z,101694.48
2023-05-21T12:48:16.901Z,101686.40
2023-05-21T12:50:47.646Z,101692.34
2023-05-21T12:53:17.052Z,101684.73
2023-05-21T12:55:46.483Z,101687.66
2023-05-21T12:58:17.126Z,101689.52
2023-05-21T13:00:46.677Z,101685.89
2023-05-21T13:03:16.487Z,101679.59
2023-05-21T13:05:46.997Z,101684.40
2023-05-21T13:08:17.003Z,101681.14
2023-05-21T13:10:46.340Z,101691.61
2023-05-21T13:13:15.728Z,101694.34
2023-05-21T13:15:45.131Z,101696.03
2023-05-21T13:18:15.873Z,101701.70
2023-05-21T13:20:45.482Z,101693.55
2023-05-21T13:23:16.406Z,101696.17
2023-05-21T13:25:45.864Z,101695.39
2023-05-21T13:28:16.464Z,101695.16
2023-05-21T13:30:45.860Z,101691.52
2023-05-21T13:33:15.275Z,101699.72
2023-05-21T13:35:45.686Z,101697.39
2023-05-21T13:38:15.018Z,101699.20
2023-05-21T13:40:44.583Z,101694.38
2023-05-21T13:43:13.918Z,101696.70
2023-05-21T13:45:43.817Z,101696.05
2023-05-21T13:48:13.218Z,101690.95
2023-05-21T13:50:42.938Z,101684.92
2023-05-21T13:53:12.317Z,101684.91
2023-05-21T13:55:41.680Z,101683.02
2023-05-21T13:58:11.376Z,101673.05
2023-05-21T14:00:42.737Z,101676.33
2023-05-21T14:03:12.491Z,101677.66
2023-05-21T14:05:41.990Z,101673.89
2023-05-21T14:08:12.762Z,101663.92
2023-05-21T14:10:42.367Z,101669.38
2023-05-21T14:13:19.525Z,101667.72
2023-05-21T14:15:45.347Z,101658.74
2023-05-21T14:18:14.724Z,101659.14
2023-05-21T14:20:44.083Z,101659.89
2023-05-21T14:23:13.445Z,101660.28
2023-05-21T14:25:43.255Z,101659.28
2023-05-21T14:28:12.663Z,101654.08
2023-05-21T14:30:42.288Z,101663.23
2023-05-21T14:33:13.601Z,101650.20
2023-05-21T14:35:44.500Z,101651.55
2023-05-21T14:38:14.574Z,101653.00
2023-05-21T14:40:44.005Z,101650.29
2023-05-21T14:43:13.316Z,101649.59
2023-05-21T14:45:43.090Z,101640.16
2023-05-21T14:48:12.965Z,101644.84
2023-05-21T14:50:42.579Z,101638.02
2023-05-21T14:53:12.918Z,101640.39
2023-05-21T14:55:42.786Z,101625.97
2023-05-21T14:58:12.691Z,101629.36
2023-05-21T15:00:42.144Z,101639.65
2023-05-21T15:03:12.971Z,101633.14
2023-05-21T15:05:42.555Z,101633.54
2023-05-21T15:08:11.908Z,101637.91
2023-05-21T15:10:41.325Z,101631.02
2023-05-21T15:13:10.631Z,101625.69
2023-05-21T15:15:40.282Z,101626.09
2023-05-21T15:18:10.175Z,101627.79
2023-05-21T15:20:39.599Z,101627.79
2023-05-21T15:23:16.749Z,101631.55
2023-05-21T15:25:40.166Z,101631.55
2023-05-21T15:28:09.479Z,101617.70
2023-05-21T15:30:38.906Z,101625.14
2023-05-21T15:33:08.580Z,101621.51
2023-05-21T15:35:38.807Z,101615.09
2023-05-21T15:38:08.957Z,101621.04
2023-05-21T15:40:43.107Z,101622.02
2023-05-21T15:43:12.753Z,101622.02
2023-05-21T15:45:42.109Z,101623.02
2023-05-21T15:48:12.692Z,101621.36
2023-05-21T15:50:42.481Z,101620.84
2023-05-21T15:53:12.560Z,101607.44
2023-05-21T15:55:42.066Z,101607.44
2023-05-21T15:58:11.403Z,101619.60
2023-05-21T16:00:40.825Z,101619.60
2023-05-21T16:03:10.514Z,101624.09
2023-05-21T16:05:39.910Z,101622.31
2023-05-21T16:08:10.894Z,101629.89
2023-05-21T16:10:40.216Z,101626.41
2023-05-21T16:13:09.812Z,101635.88
2023-05-21T16:15:39.496Z,101631.48
2023-05-21T16:18:09.984Z,101638.90
2023-05-21T16:20:39.473Z,101635.03
2023-05-21T16:23:08.890Z,101630.52
2023-05-21T16:25:38.459Z,101629.08
2023-05-21T16:28:07.990Z,101629.08
2023-05-21T16:30:37.329Z,101630.61
2023-05-21T16:33:06.824Z,101625.46
2023-05-21T16:35:36.416Z,101628.33
2023-05-21T16:38:05.864Z,101629.33
2023-05-21T16:40:35.549Z,101628.38
2023-05-21T16:43:04.927Z,101624.42
2023-05-21T16:45:43.489Z,101628.78
2023-05-21T16:48:13.902Z,101637.59
2023-05-21T16:50:43.791Z,101633.45
2023-05-21T16:53:13.830Z,101633.45
2023-05-21T16:55:43.376Z,101630.58
2023-05-21T16:58:13.711Z,101615.95
2023-05-21T17:00:43.040Z,101620.37
2023-05-21T17:03:12.782Z,101620.37
2023-05-21T17:05:42.867Z,101628.27
2023-05-21T17:08:12.309Z,101628.27
2023-05-21T17:10:41.780Z,101628.80
2023-05-21T17:13:21.599Z,101622.05
2023-05-21T17:15:42.280Z,101621.84
2023-05-21T17:18:12.618Z,101623.91
2023-05-21T17:20:43.931Z,101624.91
2023-05-21T17:23:13.580Z,101623.80
2023-05-21T17:25:43.032Z,101620.33
2023-05-21T17:28:12.605Z,101629.15
2023-05-21T17:30:43.370Z,101626.26
2023-05-21T17:33:12.773Z,101620.66
2023-05-21T17:35:42.585Z,101616.52
2023-05-21T17:38:12.332Z,101620.49
2023-05-21T17:40:41.983Z,101619.80
2023-05-21T17:43:11.400Z,101614.83
2023-05-21T17:45:40.836Z,101615.53
2023-05-21T17:48:10.313Z,101611.06
2023-05-21T17:50:39.863Z,101608.70
2023-05-21T17:53:09.277Z,101609.80
2023-05-21T17:55:38.934Z,101607.19
2023-05-21T17:58:10.111Z,101608.37
2023-05-21T18:00:39.748Z,101608.55
2023-05-21T18:03:09.258Z,101610.27
2023-05-21T18:05:38.960Z,101615.12
2023-05-21T18:08:10.102Z,101615.34
2023-05-21T18:10:39.638Z,101609.34
2023-05-21T18:13:08.969Z,101611.69
2023-05-21T18:15:38.589Z,101610.84
2023-05-21T18:18:08.299Z,101611.34
2023-05-21T18:20:38.093Z,101611.01
2023-05-21T18:23:07.808Z,101615.39
2023-05-21T18:25:37.107Z,101624.53
2023-05-21T18:28:06.688Z,101622.02
2023-05-21T18:30:36.612Z,101597.34
2023-05-21T18:33:08.368Z,101616.52
2023-05-21T18:35:37.977Z,101622.69
2023-05-21T18:38:09.331Z,101629.36
2023-05-21T18:40:39.012Z,101638.66
2023-05-21T18:43:10.503Z,101632.00
2023-05-21T18:45:40.002Z,101632.34
2023-05-21T18:48:09.744Z,101629.84
2023-05-21T18:50:39.916Z,101628.14
2023-05-21T18:53:09.513Z,101632.95
2023-05-21T18:55:40.665Z,101632.97
2023-05-21T18:58:10.244Z,101636.61
2023-05-21T19:00:39.820Z,101629.61
2023-05-21T19:03:09.788Z,101629.59
2023-05-21T19:05:39.392Z,101624.06
2023-05-21T19:08:09.168Z,101625.91
2023-05-21T19:10:39.478Z,101633.39
2023-05-21T19:13:09.670Z,101629.68
2023-05-21T19:15:39.374Z,101629.36
2023-05-21T19:18:09.113Z,101631.53
2023-05-21T19:20:38.977Z,101628.19
2023-05-21T19:23:08.735Z,101627.82
2023-05-21T19:25:39.068Z,101625.80
2023-05-21T19:28:08.569Z,101625.08
2023-05-21T19:30:38.372Z,101637.50
2023-05-21T19:33:07.961Z,101635.31
2023-05-21T19:35:38.053Z,101643.83
2023-05-21T19:38:07.442Z,101645.48
2023-05-21T19:40:37.096Z,101644.10
2023-05-21T19:43:13.438Z,101648.72
2023-05-21T19:45:43.256Z,101646.39
2023-05-21T19:48:12.906Z,101656.59
2023-05-21T19:50:42.872Z,101652.66
2023-05-21T19:53:13.832Z,101656.58
2023-05-21T19:55:44.592Z,101651.56
2023-05-21T19:58:15.989Z,101649.91
2023-05-21T20:00:45.816Z,101651.48
2023-05-21T20:03:17.252Z,101657.11
2023-05-21T20:05:46.864Z,101659.13
2023-05-21T20:08:16.614Z,101654.27
2023-05-21T20:13:15.540Z,101653.47
2023-05-21T20:15:44.880Z,101654.66
2023-05-21T20:18:15.813Z,101655.33
2023-05-21T20:20:46.796Z,101651.60
2023-05-21T20:23:16.653Z,101648.80
2023-05-21T20:25:46.110Z,101656.77
2023-05-21T20:28:15.818Z,101658.47
2023-05-21T20:30:53.497Z,101652.05
2023-05-21T20:33:23.694Z,101659.80
2023-05-21T20:35:53.195Z,101656.10
2023-05-21T20:38:24.424Z,101653.89
2023-05-21T20:40:55.003Z,101656.57
2023-05-21T20:43:24.897Z,101660.28
2023-05-21T20:45:59.992Z,101653.60
2023-05-21T20:48:32.071Z,101659.97
2023-05-21T20:51:03.331Z,101654.39
2023-05-21T20:53:33.750Z,101653.69
2023-05-21T20:56:04.840Z,101652.28
2023-05-21T20:58:35.078Z,101645.26
2023-05-21T21:01:04.731Z,101642.52
2023-05-21T21:03:34.754Z,101641.34
2023-05-21T21:06:06.022Z,101638.26
2023-05-21T21:08:35.669Z,101643.03
2023-05-21T21:11:05.055Z,101638.83
2023-05-21T21:13:37.652Z,101638.08
2023-05-21T21:16:06.794Z,101637.79
2023-05-21T21:18:36.267Z,101635.00
2023-05-21T21:21:07.346Z,101639.63
2023-05-21T21:23:37.254Z,101641.30
2023-05-21T21:26:06.659Z,101640.59
2023-05-21T21:28:36.039Z,101640.48
2023-05-21T21:31:05.546Z,101636.70
2023-05-21T21:33:35.048Z,101638.92
2023-05-21T21:36:04.270Z,101646.35
2023-05-21T21:38:33.639Z,101642.85
2023-05-21T21:41:03.435Z,101639.35
2023-05-21T21:43:32.766Z,101638.95
2023-05-21T21:46:02.173Z,101636.98
2023-05-21T21:48:31.504Z,101639.90
2023-05-21T21:51:00.967Z,101641.09
2023-05-21T21:53:30.311Z,101644.66
2023-05-21T21:55:59.789Z,101641.16
2023-05-21T21:58:29.451Z,101641.01
2023-05-21T22:00:59.075Z,101643.87
2023-05-21T22:03:28.483Z,101642.69
2023-05-21T22:05:57.809Z,101644.47
2023-05-21T22:08:28.750Z,101652.11
2023-05-21T22:10:58.946Z,101651.43
2023-05-21T22:13:29.961Z,101647.08
2023-05-21T22:15:59.880Z,101652.11
2023-05-21T22:18:40.477Z,101650.78
2023-05-21T22:21:00.312Z,101650.24
2023-05-21T22:23:30.904Z,101647.22
2023-05-21T22:26:00.958Z,101642.09
2023-05-21T22:28:30.313Z,101642.27
2023-05-21T22:31:00.049Z,101641.17
2023-05-21T22:33:29.558Z,101640.80
2023-05-21T22:35:59.036Z,101644.41
2023-05-21T22:38:28.469Z,101645.49
2023-05-21T22:40:58.140Z,101638.39
2023-05-21T22:43:27.645Z,101637.03
2023-05-21T22:45:57.078Z,101631.02
2023-05-21T22:48:26.526Z,101633.53
2023-05-21T22:50:57.925Z,101637.63
2023-05-21T22:53:27.921Z,101641.34
2023-05-21T22:55:57.328Z,101639.64
2023-05-21T22:58:26.712Z,101631.97
2023-05-21T23:00:56.058Z,101636.52
2023-05-21T23:03:25.769Z,101633.69
2023-05-21T23:05:55.079Z,101638.45
2023-05-21T23:08:24.762Z,101637.32
2023-05-21T23:10:54.404Z,101635.36
2023-05-21T23:13:23.791Z,101637.93
2023-05-21T23:15:53.726Z,101634.63
2023-05-21T23:18:23.118Z,101633.59
2023-05-21T23:20:52.484Z,101632.06
2023-05-21T23:23:21.894Z,101634.36
2023-05-21T23:25:53.117Z,101635.62
2023-05-21T23:28:22.905Z,101631.58
2023-05-21T23:30:52.638Z,101633.17
2023-05-21T23:33:22.007Z,101633.72
2023-05-21T23:35:51.388Z,101627.82
2023-05-21T23:38:21.184Z,101630.39
2023-05-21T23:40:50.797Z,101629.07
2023-05-21T23:43:20.305Z,101626.97
2023-05-21T23:45:49.664Z,101640.84
2023-05-21T23:48:19.212Z,101633.06
2023-05-21T23:50:48.580Z,101635.05
2023-05-21T23:53:18.328Z,101635.62
2023-05-21T23:55:47.733Z,101630.86
2023-05-21T23:58:17.473Z,101632.34
